sensor_id;sensor_type;location;lat;lon;timestamp;pressure;altitude;pressure_sealevel;temperature;humidity
52745;BME280;38637;49.984;20.426;2023-07-30T00:01:25;98709.88;;;19.28;100.00
52745;BME280;38637;49.984;20.426;2023-07-30T00:03:51;98702.03;;;19.31;100.00
52745;BME280;38637;49.984;20.426;2023-07-30T00:06:16;98708.06;;;19.33;100.00
52745;BME280;38637;49.984;20.426;2023-07-30T00:08:41;98716.97;;;19.38;100.00
52745;BME280;38637;49.984;20.426;2023-07-30T00:11:07;98709.28;;;19.44;100.00
52745;BME280;38637;49.984;20.426;2023-07-30T00:13:32;98708.75;;;19.50;100.00
52745;BME280;38637;49.984;20.426;2023-07-30T00:15:57;98700.22;;;19.56;100.00
52745;BME280;38637;49.984;20.426;2023-07-30T00:18:22;98675.56;;;19.42;100.00
52745;BME280;38637;49.984;20.426;2023-07-30T00:20:48;98696.66;;;19.55;100.00
52745;BME280;38637;49.984;20.426;2023-07-30T00:23:13;98707.09;;;19.49;100.00
52745;BME280;38637;49.984;20.426;2023-07-30T00:25:38;98706.97;;;19.46;100.00
52745;BME280;38637;49.984;20.426;2023-07-30T00:28:04;98703.94;;;19.39;100.00
52745;BME280;38637;49.984;20.426;2023-07-30T00:30:29;98690.28;;;19.34;100.00
52745;BME280;38637;49.984;20.426;2023-07-30T00:32:54;98679.63;;;19.23;100.00
52745;BME280;38637;49.984;20.426;2023-07-30T00:35:20;98680.56;;;19.27;100.00
52745;BME280;38637;49.984;20.426;2023-07-30T00:37:45;98684.81;;;19.25;100.00
52745;BME280;38637;49.984;20.426;2023-07-30T00:40:11;98683.72;;;19.17;100.00
52745;BME280;38637;49.984;20.426;2023-07-30T00:42:36;98686.97;;;19.19;100.00
52745;BME280;38637;49.984;20.426;2023-07-30T00:45:02;98685.69;;;19.17;100.00
52745;BME280;38637;49.984;20.426;2023-07-30T00:47:28;98684.41;;;19.14;100.00
52745;BME280;38637;49.984;20.426;2023-07-30T00:49:53;98681.16;;;19.12;100.00
52745;BME280;38637;49.984;20.426;2023-07-30T00:52:21;98694.97;;;19.12;100.00
52745;BME280;38637;49.984;20.426;2023-07-30T00:54:49;98688.16;;;19.10;100.00
52745;BME280;38637;49.984;20.426;2023-07-30T00:57:18;98686.69;;;19.12;100.00
52745;BME280;38637;49.984;20.426;2023-07-30T00:59:44;98687.16;;;19.14;100.00
52745;BME280;38637;49.984;20.426;2023-07-30T01:02:09;98695.13;;;19.16;100.00
52745;BME280;38637;49.984;20.426;2023-07-30T01:04:35;98683.09;;;19.12;100.00
52745;BME280;38637;49.984;20.426;2023-07-30T01:07:02;98655.75;;;18.89;100.00
52745;BME280;38637;49.984;20.426;2023-07-30T01:09:28;98694.44;;;19.19;100.00
52745;BME280;38637;49.984;20.426;2023-07-30T01:11:53;98694.94;;;19.21;100.00
52745;BME280;38637;49.984;20.426;2023-07-30T01:14:20;98685.63;;;19.25;100.00
52745;BME280;38637;49.984;20.426;2023-07-30T01:16:45;98678.94;;;19.26;100.00
52745;BME280;38637;49.984;20.426;2023-07-30T01:19:11;98678.13;;;19.26;100.00
52745;BME280;38637;49.984;20.426;2023-07-30T01:21:36;98680.78;;;19.22;100.00
52745;BME280;38637;49.984;20.426;2023-07-30T01:24:02;98673.66;;;19.13;100.00
52745;BME280;38637;49.984;20.426;2023-07-30T01:26:36;98681.63;;;19.14;100.00
52745;BME280;38637;49.984;20.426;2023-07-30T01:29:07;98689.13;;;19.14;100.00
52745;BME280;38637;49.984;20.426;2023-07-30T01:31:34;98684.44;;;19.05;100.00
52745;BME280;38637;49.984;20.426;2023-07-30T01:34:02;98680.25;;;18.99;100.00
52745;BME280;38637;49.984;20.426;2023-07-30T01:36:28;98690.38;;;18.95;100.00
52745;BME280;38637;49.984;20.426;2023-07-30T01:38:56;98680.16;;;18.87;100.00
52745;BME280;38637;49.984;20.426;2023-07-30T01:41:22;98695.78;;;18.92;100.00
52745;BME280;38637;49.984;20.426;2023-07-30T01:43:47;98684.41;;;18.85;100.00
52745;BME280;38637;49.984;20.426;2023-07-30T01:46:13;98692.50;;;18.90;100.00
52745;BME280;38637;49.984;20.426;2023-07-30T01:48:38;98687.31;;;18.88;100.00
52745;BME280;38637;49.984;20.426;2023-07-30T01:51:03;98685.81;;;18.91;100.00
52745;BME280;38637;49.984;20.426;2023-07-30T01:53:28;98688.59;;;18.91;100.00
52745;BME280;38637;49.984;20.426;2023-07-30T01:55:54;98682.25;;;18.90;100.00
52745;BME280;38637;49.984;20.426;2023-07-30T01:58:19;98685.81;;;18.91;100.00
52745;BME280;38637;49.984;20.426;2023-07-30T02:00:45;98684.22;;;18.90;100.00
52745;BME280;38637;49.984;20.426;2023-07-30T02:03:10;98689.47;;;18.82;100.00
52745;BME280;38637;49.984;20.426;2023-07-30T02:05:35;98691.25;;;18.78;100.00
52745;BME280;38637;49.984;20.426;2023-07-30T02:08:01;98683.63;;;18.75;100.00
52745;BME280;38637;49.984;20.426;2023-07-30T02:10:26;98670.78;;;18.71;100.00
52745;BME280;38637;49.984;20.426;2023-07-30T02:12:51;98681.00;;;18.79;100.00
52745;BME280;38637;49.984;20.426;2023-07-30T02:15:17;98682.28;;;18.81;100.00
52745;BME280;38637;49.984;20.426;2023-07-30T02:17:42;98690.28;;;18.83;100.00
52745;BME280;38637;49.984;20.426;2023-07-30T02:20:08;98691.41;;;18.82;100.00
52745;BME280;38637;49.984;20.426;2023-07-30T02:22:34;98699.38;;;18.83;100.00
52745;BME280;38637;49.984;20.426;2023-07-30T02:24:59;98702.16;;;18.83;100.00
52745;BME280;38637;49.984;20.426;2023-07-30T02:27:24;98705.22;;;18.82;100.00
52745;BME280;38637;49.984;20.426;2023-07-30T02:29:49;98715.50;;;18.81;100.00
52745;BME280;38637;49.984;20.426;2023-07-30T02:32:15;98691.59;;;18.77;100.00
52745;BME280;38637;49.984;20.426;2023-07-30T02:34:40;98700.53;;;18.82;100.00
52745;BME280;38637;49.984;20.426;2023-07-30T02:37:06;98711.75;;;18.86;100.00
52745;BME280;38637;49.984;20.426;2023-07-30T02:39:31;98710.59;;;18.87;99.85
52745;BME280;38637;49.984;20.426;2023-07-30T02:41:56;98705.84;;;18.88;99.63
52745;BME280;38637;49.984;20.426;2023-07-30T02:44:22;98706.22;;;18.86;99.80
52745;BME280;38637;49.984;20.426;2023-07-30T02:46:47;98733.25;;;18.80;100.00
52745;BME280;38637;49.984;20.426;2023-07-30T02:49:12;98723.50;;;18.74;100.00
52745;BME280;38637;49.984;20.426;2023-07-30T02:51:38;98726.59;;;18.73;100.00
52745;BME280;38637;49.984;20.426;2023-07-30T02:54:04;98724.13;;;18.71;100.00
52745;BME280;38637;49.984;20.426;2023-07-30T02:56:30;98735.19;;;18.71;100.00
52745;BME280;38637;49.984;20.426;2023-07-30T02:58:56;98737.66;;;18.73;99.84
52745;BME280;38637;49.984;20.426;2023-07-30T03:01:22;98725.75;;;18.72;99.78
52745;BME280;38637;49.984;20.426;2023-07-30T03:03:47;98734.56;;;18.74;99.38
52745;BME280;38637;49.984;20.426;2023-07-30T03:06:12;98737.34;;;18.74;99.12
52745;BME280;38637;49.984;20.426;2023-07-30T03:08:39;98744.81;;;18.74;99.12
52745;BME280;38637;49.984;20.426;2023-07-30T03:11:04;98743.34;;;18.76;98.95
52745;BME280;38637;49.984;20.426;2023-07-30T03:13:29;98751.44;;;18.81;98.74
52745;BME280;38637;49.984;20.426;2023-07-30T03:15:55;98741.38;;;18.86;98.55
52745;BME280;38637;49.984;20.426;2023-07-30T03:18:20;98740.34;;;18.90;98.31
52745;BME280;38637;49.984;20.426;2023-07-30T03:20:45;98742.47;;;18.93;98.13
52745;BME280;38637;49.984;20.426;2023-07-30T03:23:11;98742.28;;;18.98;97.86
52745;BME280;38637;49.984;20.426;2023-07-30T03:25:36;98741.63;;;19.01;97.51
52745;BME280;38637;49.984;20.426;2023-07-30T03:28:01;98746.63;;;19.08;97.22
52745;BME280;38637;49.984;20.426;2023-07-30T03:30:26;98752.16;;;19.08;96.81
52745;BME280;38637;49.984;20.426;2023-07-30T03:32:52;98748.91;;;19.06;96.79
52745;BME280;38637;49.984;20.426;2023-07-30T03:35:18;98754.44;;;19.06;96.81
52745;BME280;38637;49.984;20.426;2023-07-30T03:37:43;98756.41;;;19.05;96.82
52745;BME280;38637;49.984;20.426;2023-07-30T03:40:09;98755.59;;;19.05;96.53
52745;BME280;38637;49.984;20.426;2023-07-30T03:42:34;98753.16;;;19.03;96.44
52745;BME280;38637;49.984;20.426;2023-07-30T03:44:59;98754.78;;;19.04;96.32
52745;BME280;38637;49.984;20.426;2023-07-30T03:47:24;98768.13;;;19.02;96.28
52745;BME280;38637;49.984;20.426;2023-07-30T03:49:50;98767.47;;;19.05;95.94
52745;BME280;38637;49.984;20.426;2023-07-30T03:52:15;98768.91;;;19.12;95.47
52745;BME280;38637;49.984;20.426;2023-07-30T03:54:42;98776.63;;;19.27;95.06
52745;BME280;38637;49.984;20.426;2023-07-30T03:57:07;98776.72;;;19.39;94.27
52745;BME280;38637;49.984;20.426;2023-07-30T03:59:33;98783.06;;;19.40;94.00
52745;BME280;38637;49.984;20.426;2023-07-30T04:01:58;98789.91;;;19.42;94.24
52745;BME280;38637;49.984;20.426;2023-07-30T04:04:24;98781.28;;;19.44;94.33
52745;BME280;38637;49.984;20.426;2023-07-30T04:06:49;98789.88;;;19.51;93.89
52745;BME280;38637;49.984;20.426;2023-07-30T04:09:14;98781.81;;;19.58;93.81
52745;BME280;38637;49.984;20.426;2023-07-30T04:11:40;98789.78;;;19.68;93.45
52745;BME280;38637;49.984;20.426;2023-07-30T04:14:05;98794.88;;;19.87;92.65
52745;BME280;38637;49.984;20.426;2023-07-30T04:16:33;98789.31;;;20.08;91.70
52745;BME280;38637;49.984;20.426;2023-07-30T04:18:58;98788.09;;;20.18;90.89
52745;BME280;38637;49.984;20.426;2023-07-30T04:21:24;98781.00;;;20.08;90.35
52745;BME280;38637;49.984;20.426;2023-07-30T04:23:49;98798.16;;;20.02;91.12
52745;BME280;38637;49.984;20.426;2023-07-30T04:26:14;98803.56;;;19.98;91.52
52745;BME280;38637;49.984;20.426;2023-07-30T04:28:40;98807.16;;;19.98;91.25
52745;BME280;38637;49.984;20.426;2023-07-30T04:31:06;98804.06;;;20.00;91.14
52745;BME280;38637;49.984;20.426;2023-07-30T04:33:31;98818.13;;;20.16;90.90
52745;BME280;38637;49.984;20.426;2023-07-30T04:35:56;98815.75;;;20.27;90.33
52745;BME280;38637;49.984;20.426;2023-07-30T04:38:22;98815.19;;;20.33;90.14
52745;BME280;38637;49.984;20.426;2023-07-30T04:40:48;98820.19;;;20.40;90.00
52745;BME280;38637;49.984;20.426;2023-07-30T04:43:13;98819.50;;;20.43;89.28
52745;BME280;38637;49.984;20.426;2023-07-30T04:45:39;98826.09;;;20.51;88.73
52745;BME280;38637;49.984;20.426;2023-07-30T04:48:05;98848.25;;;20.59;88.34
52745;BME280;38637;49.984;20.426;2023-07-30T04:50:30;98842.63;;;20.68;87.40
52745;BME280;38637;49.984;20.426;2023-07-30T04:52:55;98835.50;;;20.79;87.18
52745;BME280;38637;49.984;20.426;2023-07-30T04:55:21;98840.50;;;20.98;85.59
52745;BME280;38637;49.984;20.426;2023-07-30T04:57:46;98839.16;;;21.29;84.86
52745;BME280;38637;49.984;20.426;2023-07-30T05:00:12;98830.97;;;21.57;83.76
52745;BME280;38637;49.984;20.426;2023-07-30T05:02:37;98834.91;;;21.68;82.74
52745;BME280;38637;49.984;20.426;2023-07-30T05:05:02;98830.63;;;21.71;82.74
52745;BME280;38637;49.984;20.426;2023-07-30T05:07:28;98838.63;;;21.72;82.18
52745;BME280;38637;49.984;20.426;2023-07-30T05:09:53;98834.00;;;21.76;82.01
52745;BME280;38637;49.984;20.426;2023-07-30T05:12:18;98836.06;;;21.79;81.94
52745;BME280;38637;49.984;20.426;2023-07-30T05:14:44;98837.22;;;21.78;80.56
52745;BME280;38637;49.984;20.426;2023-07-30T05:17:09;98839.88;;;21.75;80.66
52745;BME280;38637;49.984;20.426;2023-07-30T05:19:34;98827.38;;;21.69;80.27
52745;BME280;38637;49.984;20.426;2023-07-30T05:21:59;98835.59;;;21.77;80.18
52745;BME280;38637;49.984;20.426;2023-07-30T05:24:27;98826.19;;;21.82;80.17
52745;BME280;38637;49.984;20.426;2023-07-30T05:26:52;98844.72;;;21.90;79.02
52745;BME280;38637;49.984;20.426;2023-07-30T05:29:17;98843.91;;;22.02;78.67
52745;BME280;38637;49.984;20.426;2023-07-30T05:31:42;98849.66;;;22.09;78.62
52745;BME280;38637;49.984;20.426;2023-07-30T05:34:08;98855.94;;;22.06;77.82
52745;BME280;38637;49.984;20.426;2023-07-30T05:36:33;98855.69;;;22.11;77.60
52745;BME280;38637;49.984;20.426;2023-07-30T05:38:58;98855.50;;;22.16;77.44
52745;BME280;38637;49.984;20.426;2023-07-30T05:41:24;98860.78;;;22.21;77.53
52745;BME280;38637;49.984;20.426;2023-07-30T05:43:49;98860.16;;;22.40;76.40
52745;BME280;38637;49.984;20.426;2023-07-30T05:46:15;98863.81;;;22.57;75.84
52745;BME280;38637;49.984;20.426;2023-07-30T05:48:40;98860.72;;;22.74;74.69
52745;BME280;38637;49.984;20.426;2023-07-30T05:51:05;98847.41;;;22.96;74.35
52745;BME280;38637;49.984;20.426;2023-07-30T05:53:30;98851.03;;;23.12;74.19
52745;BME280;38637;49.984;20.426;2023-07-30T05:55:56;98861.97;;;23.05;72.62
52745;BME280;38637;49.984;20.426;2023-07-30T05:58:21;98864.97;;;23.12;71.25
52745;BME280;38637;49.984;20.426;2023-07-30T06:00:46;98859.47;;;23.15;69.83
52745;BME280;38637;49.984;20.426;2023-07-30T06:03:11;98862.91;;;23.25;69.45
52745;BME280;38637;49.984;20.426;2023-07-30T06:05:41;98857.69;;;23.23;68.69
52745;BME280;38637;49.984;20.426;2023-07-30T06:08:07;98872.34;;;23.52;68.10
52745;BME280;38637;49.984;20.426;2023-07-30T06:10:36;98859.50;;;23.79;67.29
52745;BME280;38637;49.984;20.426;2023-07-30T06:13:03;98869.00;;;23.94;64.75
52745;BME280;38637;49.984;20.426;2023-07-30T06:15:28;98863.44;;;23.94;64.61
52745;BME280;38637;49.984;20.426;2023-07-30T06:17:54;98858.28;;;23.96;64.90
52745;BME280;38637;49.984;20.426;2023-07-30T06:20:19;98854.97;;;23.90;66.45
52745;BME280;38637;49.984;20.426;2023-07-30T06:22:44;98859.41;;;24.11;66.33
52745;BME280;38637;49.984;20.426;2023-07-30T06:25:10;98857.09;;;24.32;66.12
52745;BME280;38637;49.984;20.426;2023-07-30T06:27:35;98856.75;;;24.34;66.62
52745;BME280;38637;49.984;20.426;2023-07-30T06:30:00;98847.31;;;24.22;66.29
52745;BME280;38637;49.984;20.426;2023-07-30T06:32:26;98855.47;;;24.31;66.52
52745;BME280;38637;49.984;20.426;2023-07-30T06:34:51;98867.53;;;24.35;66.34
52745;BME280;38637;49.984;20.426;2023-07-30T06:37:16;98858.97;;;24.44;66.71
52745;BME280;38637;49.984;20.426;2023-07-30T06:39:42;98855.41;;;24.27;66.20
52745;BME280;38637;49.984;20.426;2023-07-30T06:42:07;98861.13;;;24.15;65.77
52745;BME280;38637;49.984;20.426;2023-07-30T06:44:33;98863.50;;;23.97;64.50
52745;BME280;38637;49.984;20.426;2023-07-30T06:46:59;98869.25;;;24.04;65.80
52745;BME280;38637;49.984;20.426;2023-07-30T06:49:24;98862.28;;;24.14;65.43
52745;BME280;38637;49.984;20.426;2023-07-30T06:51:49;98862.19;;;24.11;64.43
52745;BME280;38637;49.984;20.426;2023-07-30T06:54:15;98858.88;;;24.05;65.31
52745;BME280;38637;49.984;20.426;2023-07-30T06:56:40;98853.97;;;24.18;65.79
52745;BME280;38637;49.984;20.426;2023-07-30T06:59:05;98850.09;;;24.22;65.51
52745;BME280;38637;49.984;20.426;2023-07-30T07:01:30;98857.16;;;24.36;65.61
52745;BME280;38637;49.984;20.426;2023-07-30T07:03:56;98855.00;;;24.45;65.79
52745;BME280;38637;49.984;20.426;2023-07-30T07:06:21;98853.44;;;24.47;64.62
52745;BME280;38637;49.984;20.426;2023-07-30T07:08:46;98858.38;;;24.54;64.21
52745;BME280;38637;49.984;20.426;2023-07-30T07:11:12;98862.22;;;24.46;62.97
52745;BME280;38637;49.984;20.426;2023-07-30T07:13:37;98863.47;;;24.33;62.60
52745;BME280;38637;49.984;20.426;2023-07-30T07:16:03;98866.16;;;24.45;63.05
52745;BME280;38637;49.984;20.426;2023-07-30T07:18:28;98858.81;;;24.56;62.59
52745;BME280;38637;49.984;20.426;2023-07-30T07:20:54;98852.94;;;24.61;62.41
52745;BME280;38637;49.984;20.426;2023-07-30T07:23:19;98859.75;;;24.64;62.54
52745;BME280;38637;49.984;20.426;2023-07-30T07:25:44;98863.50;;;24.71;62.68
52745;BME280;38637;49.984;20.426;2023-07-30T07:28:10;98858.59;;;24.65;63.16
52745;BME280;38637;49.984;20.426;2023-07-30T07:30:35;98859.78;;;24.44;61.96
52745;BME280;38637;49.984;20.426;2023-07-30T07:33:04;98854.25;;;24.48;61.63
52745;BME280;38637;49.984;20.426;2023-07-30T07:35:31;98868.88;;;24.61;60.77
52745;BME280;38637;49.984;20.426;2023-07-30T07:37:56;98855.75;;;24.61;61.25
52745;BME280;38637;49.984;20.426;2023-07-30T07:40:22;98855.19;;;24.75;60.89
52745;BME280;38637;49.984;20.426;2023-07-30T07:42:47;98865.03;;;24.88;60.10
52745;BME280;38637;49.984;20.426;2023-07-30T07:45:12;98867.81;;;24.88;58.99
52745;BME280;38637;49.984;20.426;2023-07-30T07:47:38;98857.66;;;24.99;59.79
52745;BME280;38637;49.984;20.426;2023-07-30T07:50:03;98853.88;;;25.11;60.89
52745;BME280;38637;49.984;20.426;2023-07-30T07:52:29;98846.41;;;25.15;59.91
52745;BME280;38637;49.984;20.426;2023-07-30T07:54:54;98855.78;;;25.27;59.58
52745;BME280;38637;49.984;20.426;2023-07-30T07:57:19;98846.28;;;25.31;58.68
52745;BME280;38637;49.984;20.426;2023-07-30T07:59:44;98844.72;;;25.34;58.21
52745;BME280;38637;49.984;20.426;2023-07-30T08:02:11;98845.53;;;25.34;57.36
52745;BME280;38637;49.984;20.426;2023-07-30T08:04:37;98851.41;;;25.52;58.25
52745;BME280;38637;49.984;20.426;2023-07-30T08:07:02;98845.88;;;25.56;57.96
52745;BME280;38637;49.984;20.426;2023-07-30T08:09:29;98849.59;;;25.63;57.64
52745;BME280;38637;49.984;20.426;2023-07-30T08:11:54;98853.97;;;25.84;58.09
52745;BME280;38637;49.984;20.426;2023-07-30T08:14:20;98851.88;;;25.81;55.52
52745;BME280;38637;49.984;20.426;2023-07-30T08:16:45;98857.59;;;25.88;56.10
52745;BME280;38637;49.984;20.426;2023-07-30T08:19:10;98869.38;;;26.01;56.15
52745;BME280;38637;49.984;20.426;2023-07-30T08:21:36;98862.00;;;26.16;55.43
52745;BME280;38637;49.984;20.426;2023-07-30T08:24:02;98860.53;;;26.25;56.32
52745;BME280;38637;49.984;20.426;2023-07-30T08:26:27;98862.25;;;26.33;55.42
52745;BME280;38637;49.984;20.426;2023-07-30T08:28:52;98861.22;;;26.45;55.16
52745;BME280;38637;49.984;20.426;2023-07-30T08:31:18;98863.69;;;26.50;54.21
52745;BME280;38637;49.984;20.426;2023-07-30T08:33:43;98861.88;;;26.65;54.22
52745;BME280;38637;49.984;20.426;2023-07-30T08:36:08;98857.25;;;26.80;53.11
52745;BME280;38637;49.984;20.426;2023-07-30T08:38:34;98865.38;;;26.92;51.95
52745;BME280;38637;49.984;20.426;2023-07-30T08:40:59;98862.72;;;27.03;52.38
52745;BME280;38637;49.984;20.426;2023-07-30T08:43:25;98865.81;;;26.94;53.12
52745;BME280;38637;49.984;20.426;2023-07-30T08:45:50;98866.22;;;26.96;52.26
52745;BME280;38637;49.984;20.426;2023-07-30T08:48:15;98866.81;;;27.13;52.16
52745;BME280;38637;49.984;20.426;2023-07-30T08:50:41;98861.06;;;27.02;52.26
52745;BME280;38637;49.984;20.426;2023-07-30T08:53:07;98866.75;;;26.72;51.43
52745;BME280;38637;49.984;20.426;2023-07-30T08:55:34;98865.81;;;26.94;51.84
52745;BME280;38637;49.984;20.426;2023-07-30T08:58:03;98865.44;;;26.99;51.50
52745;BME280;38637;49.984;20.426;2023-07-30T09:00:31;98865.38;;;26.92;51.14
52745;BME280;38637;49.984;20.426;2023-07-30T09:02:59;98863.38;;;26.93;50.50
52745;BME280;38637;49.984;20.426;2023-07-30T09:05:26;98863.56;;;27.11;51.34
52745;BME280;38637;49.984;20.426;2023-07-30T09:07:55;98873.00;;;27.29;51.30
52745;BME280;38637;49.984;20.426;2023-07-30T09:10:21;98868.28;;;27.40;52.06
52745;BME280;38637;49.984;20.426;2023-07-30T09:12:52;98861.69;;;27.18;51.88
52745;BME280;38637;49.984;20.426;2023-07-30T09:15:18;98866.00;;;27.12;52.56
52745;BME280;38637;49.984;20.426;2023-07-30T09:17:45;98876.06;;;27.17;51.80
52745;BME280;38637;49.984;20.426;2023-07-30T09:20:10;98872.47;;;27.16;50.29
52745;BME280;38637;49.984;20.426;2023-07-30T09:22:36;98870.72;;;27.04;51.66
52745;BME280;38637;49.984;20.426;2023-07-30T09:25:04;98871.41;;;26.94;52.48
52745;BME280;38637;49.984;20.426;2023-07-30T09:27:31;98867.25;;;27.15;52.30
52745;BME280;38637;49.984;20.426;2023-07-30T09:29:57;98871.88;;;27.37;51.65
52745;BME280;38637;49.984;20.426;2023-07-30T09:32:30;98863.38;;;27.30;51.50
52745;BME280;38637;49.984;20.426;2023-07-30T09:35:07;98872.66;;;27.34;52.15
52745;BME280;38637;49.984;20.426;2023-07-30T09:37:41;98871.84;;;27.34;51.41
52745;BME280;38637;49.984;20.426;2023-07-30T09:40:08;98871.00;;;27.30;51.15
52745;BME280;38637;49.984;20.426;2023-07-30T09:42:35;98865.69;;;27.21;50.85
52745;BME280;38637;49.984;20.426;2023-07-30T09:45:03;98873.28;;;27.17;49.20
52745;BME280;38637;49.984;20.426;2023-07-30T09:47:32;98875.38;;;27.27;50.71
52745;BME280;38637;49.984;20.426;2023-07-30T09:49:59;98860.00;;;27.14;50.98
52745;BME280;38637;49.984;20.426;2023-07-30T09:52:24;98859.25;;;27.17;50.86
52745;BME280;38637;49.984;20.426;2023-07-30T09:54:52;98861.81;;;27.33;51.15
52745;BME280;38637;49.984;20.426;2023-07-30T09:57:17;98857.56;;;27.49;49.86
52745;BME280;38637;49.984;20.426;2023-07-30T09:59:43;98849.63;;;27.59;50.42
52745;BME280;38637;49.984;20.426;2023-07-30T10:02:10;98848.28;;;27.45;50.86
52745;BME280;38637;49.984;20.426;2023-07-30T10:04:43;98849.94;;;27.50;51.40
52745;BME280;38637;49.984;20.426;2023-07-30T10:07:13;98853.22;;;27.59;50.24
52745;BME280;38637;49.984;20.426;2023-07-30T10:09:41;98850.06;;;27.64;50.55
52745;BME280;38637;49.984;20.426;2023-07-30T10:12:21;98847.22;;;27.61;50.27
52745;BME280;38637;49.984;20.426;2023-07-30T10:14:48;98842.13;;;27.73;49.08
52745;BME280;38637;49.984;20.426;2023-07-30T10:17:13;98845.81;;;27.81;50.04
52745;BME280;38637;49.984;20.426;2023-07-30T10:19:41;98843.78;;;27.78;48.97
52745;BME280;38637;49.984;20.426;2023-07-30T10:24:38;98847.28;;;27.68;49.91
52745;BME280;38637;49.984;20.426;2023-07-30T10:27:08;98846.09;;;27.72;49.54
52745;BME280;38637;49.984;20.426;2023-07-30T10:29:35;98847.00;;;27.80;48.66
52745;BME280;38637;49.984;20.426;2023-07-30T10:32:01;98838.28;;;27.96;49.73
52745;BME280;38637;49.984;20.426;2023-07-30T10:34:44;98842.69;;;27.97;49.22
52745;BME280;38637;49.984;20.426;2023-07-30T10:37:09;98845.94;;;28.06;47.60
52745;BME280;38637;49.984;20.426;2023-07-30T10:39:34;98844.00;;;27.59;48.81
52745;BME280;38637;49.984;20.426;2023-07-30T10:42:00;98840.03;;;27.63;48.47
52745;BME280;38637;49.984;20.426;2023-07-30T10:44:27;98848.66;;;27.88;49.49
52745;BME280;38637;49.984;20.426;2023-07-30T10:46:54;98844.25;;;27.91;48.65
52745;BME280;38637;49.984;20.426;2023-07-30T10:49:20;98842.22;;;27.88;49.40
52745;BME280;38637;49.984;20.426;2023-07-30T10:51:45;98830.34;;;28.12;48.30
52745;BME280;38637;49.984;20.426;2023-07-30T10:54:11;98836.06;;;28.30;48.43
52745;BME280;38637;49.984;20.426;2023-07-30T10:56:37;98832.81;;;28.21;48.15
52745;BME280;38637;49.984;20.426;2023-07-30T10:59:04;98832.78;;;28.14;48.94
52745;BME280;38637;49.984;20.426;2023-07-30T11:01:31;98833.25;;;28.34;48.37
52745;BME280;38637;49.984;20.426;2023-07-30T11:03:56;98828.53;;;28.45;46.66
52745;BME280;38637;49.984;20.426;2023-07-30T11:06:23;98836.19;;;28.55;46.91
52745;BME280;38637;49.984;20.426;2023-07-30T11:08:49;98834.19;;;28.56;47.07
52745;BME280;38637;49.984;20.426;2023-07-30T11:11:15;98832.47;;;28.37;47.20
52745;BME280;38637;49.984;20.426;2023-07-30T11:13:43;98829.66;;;28.33;46.86
52745;BME280;38637;49.984;20.426;2023-07-30T11:16:09;98826.41;;;28.28;48.10
52745;BME280;38637;49.984;20.426;2023-07-30T11:18:36;98832.16;;;28.49;47.59
52745;BME280;38637;49.984;20.426;2023-07-30T11:21:05;98829.38;;;28.56;46.74
52745;BME280;38637;49.984;20.426;2023-07-30T11:23:32;98814.47;;;28.42;46.03
52745;BME280;38637;49.984;20.426;2023-07-30T11:26:00;98824.47;;;28.35;43.33
52745;BME280;38637;49.984;20.426;2023-07-30T11:28:34;98833.00;;;28.57;45.55
52745;BME280;38637;49.984;20.426;2023-07-30T11:31:01;98818.16;;;28.60;45.41
52745;BME280;38637;49.984;20.426;2023-07-30T11:33:28;98829.41;;;28.71;46.02
52745;BME280;38637;49.984;20.426;2023-07-30T11:35:54;98817.00;;;28.82;46.74
52745;BME280;38637;49.984;20.426;2023-07-30T11:38:20;98812.91;;;28.58;44.87
52745;BME280;38637;49.984;20.426;2023-07-30T11:40:46;98816.19;;;28.78;45.77
52745;BME280;38637;49.984;20.426;2023-07-30T11:43:12;98811.88;;;29.06;44.14
52745;BME280;38637;49.984;20.426;2023-07-30T11:45:38;98809.06;;;29.35;44.03
52745;BME280;38637;49.984;20.426;2023-07-30T11:48:08;98811.06;;;29.52;45.02
52745;BME280;38637;49.984;20.426;2023-07-30T11:50:52;98804.25;;;29.67;43.37
52745;BME280;38637;49.984;20.426;2023-07-30T11:53:18;98809.47;;;29.51;41.82
52745;BME280;38637;49.984;20.426;2023-07-30T11:55:43;98812.28;;;29.65;42.71
52745;BME280;38637;49.984;20.426;2023-07-30T11:58:10;98805.06;;;29.39;42.24
52745;BME280;38637;49.984;20.426;2023-07-30T12:00:37;98813.47;;;29.28;41.90
52745;BME280;38637;49.984;20.426;2023-07-30T12:03:03;98812.22;;;28.97;43.17
52745;BME280;38637;49.984;20.426;2023-07-30T12:05:33;98807.84;;;29.03;43.46
52745;BME280;38637;49.984;20.426;2023-07-30T12:08:13;98804.25;;;29.28;43.52
52745;BME280;38637;49.984;20.426;2023-07-30T12:10:45;98819.50;;;29.41;43.86
52745;BME280;38637;49.984;20.426;2023-07-30T12:13:16;98823.94;;;29.24;44.10
52745;BME280;38637;49.984;20.426;2023-07-30T12:15:44;98811.09;;;29.27;44.48
52745;BME280;38637;49.984;20.426;2023-07-30T12:18:09;98811.47;;;29.25;43.46
52745;BME280;38637;49.984;20.426;2023-07-30T12:20:34;98817.50;;;29.13;44.51
52745;BME280;38637;49.984;20.426;2023-07-30T12:23:01;98813.09;;;29.12;44.55
52745;BME280;38637;49.984;20.426;2023-07-30T12:25:26;98807.03;;;29.06;42.76
52745;BME280;38637;49.984;20.426;2023-07-30T12:27:52;98805.34;;;28.77;43.73
52745;BME280;38637;49.984;20.426;2023-07-30T12:30:17;98797.75;;;28.81;44.39
52745;BME280;38637;49.984;20.426;2023-07-30T12:32:43;98800.19;;;28.90;44.34
52745;BME280;38637;49.984;20.426;2023-07-30T12:35:08;98800.94;;;28.83;44.00
52745;BME280;38637;49.984;20.426;2023-07-30T12:37:33;98792.94;;;28.85;45.44
52745;BME280;38637;49.984;20.426;2023-07-30T12:40:00;98799.34;;;28.85;47.23
52745;BME280;38637;49.984;20.426;2023-07-30T12:42:25;98797.69;;;28.63;46.36
52745;BME280;38637;49.984;20.426;2023-07-30T12:44:51;98797.66;;;28.56;46.32